sensor_id;sensor_type;location;lat;lon;timestamp;pressure;altitude;pressure_sealevel;temperature;humidity
71476;BME280;59286;59.274;17.974;2023-02-22T00:00:24;101450.34;;;-2.13;76.48
71476;BME280;59286;59.274;17.974;2023-02-22T00:03:04;101460.63;;;-2.13;76.49
71476;BME280;59286;59.274;17.974;2023-02-22T00:05:31;101470.31;;;-2.08;76.26
71476;BME280;59286;59.274;17.974;2023-02-22T00:07:57;101462.19;;;-2.12;76.82
71476;BME280;59286;59.274;17.974;2023-02-22T00:10:25;101473.06;;;-2.10;76.31
71476;BME280;59286;59.274;17.974;2023-02-22T00:12:52;101470.66;;;-2.18;76.46
71476;BME280;59286;59.274;17.974;2023-02-22T00:15:20;101470.03;;;-2.20;75.30
71476;BME280;59286;59.274;17.974;2023-02-22T00:17:46;101466.84;;;-2.28;75.70
71476;BME280;59286;59.274;17.974;2023-02-22T00:20:13;101474.97;;;-2.25;76.00
71476;BME280;59286;59.274;17.974;2023-02-22T00:22:43;101480.47;;;-2.28;75.69
71476;BME280;59286;59.274;17.974;2023-02-22T00:25:12;101478.66;;;-2.34;75.69
71476;BME280;59286;59.274;17.974;2023-02-22T00:27:37;101478.53;;;-2.26;76.06
71476;BME280;59286;59.274;17.974;2023-02-22T00:30:04;101482.25;;;-2.28;74.30
71476;BME280;59286;59.274;17.974;2023-02-22T00:32:30;101481.84;;;-2.32;75.37
71476;BME280;59286;59.274;17.974;2023-02-22T00:34:55;101481.44;;;-2.29;75.04
71476;BME280;59286;59.274;17.974;2023-02-22T00:37:21;101472.78;;;-2.28;76.03
71476;BME280;59286;59.274;17.974;2023-02-22T00:39:47;101486.78;;;-2.30;74.60
71476;BME280;59286;59.274;17.974;2023-02-22T00:42:14;101479.25;;;-2.32;74.51
71476;BME280;59286;59.274;17.974;2023-02-22T00:44:39;101485.75;;;-2.36;74.59
71476;BME280;59286;59.274;17.974;2023-02-22T00:47:05;101479.63;;;-2.35;75.34
71476;BME280;59286;59.274;17.974;2023-02-22T00:49:30;101487.31;;;-2.35;74.99
71476;BME280;59286;59.274;17.974;2023-02-22T00:51:55;101485.75;;;-2.36;74.71
71476;BME280;59286;59.274;17.974;2023-02-22T00:54:21;101483.66;;;-2.26;75.16
71476;BME280;59286;59.274;17.974;2023-02-22T00:56:46;101491.00;;;-2.16;75.08
71476;BME280;59286;59.274;17.974;2023-02-22T00:59:14;101494.56;;;-2.11;75.07
71476;BME280;59286;59.274;17.974;2023-02-22T01:01:40;101493.41;;;-2.15;74.78
71476;BME280;59286;59.274;17.974;2023-02-22T01:04:07;101495.53;;;-2.18;73.99
71476;BME280;59286;59.274;17.974;2023-02-22T01:06:33;101496.91;;;-2.22;74.01
71476;BME280;59286;59.274;17.974;2023-02-22T01:09:00;101494.88;;;-2.33;73.60
71476;BME280;59286;59.274;17.974;2023-02-22T01:11:26;101492.47;;;-2.35;73.98
71476;BME280;59286;59.274;17.974;2023-02-22T01:13:52;101495.22;;;-2.36;73.69
71476;BME280;59286;59.274;17.974;2023-02-22T01:16:18;101491.28;;;-2.39;74.23
71476;BME280;59286;59.274;17.974;2023-02-22T01:18:44;101497.56;;;-2.41;75.12
71476;BME280;59286;59.274;17.974;2023-02-22T01:21:09;101502.38;;;-2.32;74.98
71476;BME280;59286;59.274;17.974;2023-02-22T01:23:35;101505.44;;;-2.43;75.09
71476;BME280;59286;59.274;17.974;2023-02-22T01:26:00;101514.13;;;-2.44;75.20
71476;BME280;59286;59.274;17.974;2023-02-22T01:28:26;101515.09;;;-2.45;74.89
71476;BME280;59286;59.274;17.974;2023-02-22T01:30:53;101522.44;;;-2.42;74.73
71476;BME280;59286;59.274;17.974;2023-02-22T01:33:20;101520.84;;;-2.43;74.90
71476;BME280;59286;59.274;17.974;2023-02-22T01:35:46;101521.41;;;-2.47;74.94
71476;BME280;59286;59.274;17.974;2023-02-22T01:38:11;101527.94;;;-2.45;75.84
71476;BME280;59286;59.274;17.974;2023-02-22T01:40:40;101527.94;;;-2.45;75.18
71476;BME280;59286;59.274;17.974;2023-02-22T01:45:52;101524.38;;;-2.44;75.54
71476;BME280;59286;59.274;17.974;2023-02-22T01:48:25;101529.31;;;-2.42;74.71
71476;BME280;59286;59.274;17.974;2023-02-22T01:53:19;101528.97;;;-2.39;76.13
71476;BME280;59286;59.274;17.974;2023-02-22T01:55:46;101530.97;;;-2.35;75.70
71476;BME280;59286;59.274;17.974;2023-02-22T01:58:13;101533.09;;;-2.38;75.42
71476;BME280;59286;59.274;17.974;2023-02-22T02:00:40;101531.47;;;-2.46;75.72
71476;BME280;59286;59.274;17.974;2023-02-22T02:03:20;101530.44;;;-2.51;75.85
71476;BME280;59286;59.274;17.974;2023-02-22T02:05:47;101532.22;;;-2.52;75.74
71476;BME280;59286;59.274;17.974;2023-02-22T02:11:06;101537.81;;;-2.42;75.91
71476;BME280;59286;59.274;17.974;2023-02-22T02:13:32;101544.31;;;-2.46;75.79
71476;BME280;59286;59.274;17.974;2023-02-22T02:15:58;101540.34;;;-2.48;76.63
71476;BME280;59286;59.274;17.974;2023-02-22T02:18:25;101547.66;;;-2.45;76.14
71476;BME280;59286;59.274;17.974;2023-02-22T02:24:08;101545.28;;;-2.47;76.78
71476;BME280;59286;59.274;17.974;2023-02-22T02:27:01;101548.81;;;-2.48;76.11
71476;BME280;59286;59.274;17.974;2023-02-22T02:30:08;101549.59;;;-2.54;75.83
71476;BME280;59286;59.274;17.974;2023-02-22T02:35:14;101540.28;;;-2.55;76.42
71476;BME280;59286;59.274;17.974;2023-02-22T02:38:00;101539.66;;;-2.57;76.48
71476;BME280;59286;59.274;17.974;2023-02-22T02:40:38;101548.06;;;-2.48;76.42
71476;BME280;59286;59.274;17.974;2023-02-22T02:43:27;101547.63;;;-2.52;76.15
71476;BME280;59286;59.274;17.974;2023-02-22T02:48:32;101551.97;;;-2.52;76.46
71476;BME280;59286;59.274;17.974;2023-02-22T02:50:59;101544.44;;;-2.54;77.28
71476;BME280;59286;59.274;17.974;2023-02-22T02:53:33;101547.97;;;-2.55;76.20
71476;BME280;59286;59.274;17.974;2023-02-22T02:56:01;101547.38;;;-2.57;76.60
71476;BME280;59286;59.274;17.974;2023-02-22T02:58:27;101557.91;;;-2.52;76.70
71476;BME280;59286;59.274;17.974;2023-02-22T03:00:55;101556.28;;;-2.53;76.47
71476;BME280;59286;59.274;17.974;2023-02-22T03:03:44;101546.75;;;-2.59;77.31
71476;BME280;59286;59.274;17.974;2023-02-22T03:12:07;101567.16;;;-2.51;76.80
71476;BME280;59286;59.274;17.974;2023-02-22T03:14:41;101573.63;;;-2.55;77.23
71476;BME280;59286;59.274;17.974;2023-02-22T03:17:22;101577.19;;;-2.56;77.74
71476;BME280;59286;59.274;17.974;2023-02-22T03:20:08;101573.19;;;-2.65;77.73
71476;BME280;59286;59.274;17.974;2023-02-22T03:22:58;101585.09;;;-2.57;77.86
71476;BME280;59286;59.274;17.974;2023-02-22T03:25:31;101587.88;;;-2.52;78.10
71476;BME280;59286;59.274;17.974;2023-02-22T03:28:02;101585.16;;;-2.44;77.85
71476;BME280;59286;59.274;17.974;2023-02-22T03:30:51;101592.34;;;-2.40;77.25
71476;BME280;59286;59.274;17.974;2023-02-22T03:33:24;101591.09;;;-2.44;77.23
71476;BME280;59286;59.274;17.974;2023-02-22T03:36:01;101592.44;;;-2.48;77.16
71476;BME280;59286;59.274;17.974;2023-02-22T03:38:28;101590.38;;;-2.59;77.01
71476;BME280;59286;59.274;17.974;2023-02-22T03:41:00;101594.91;;;-2.61;77.25
71476;BME280;59286;59.274;17.974;2023-02-22T03:43:46;101588.72;;;-2.66;78.07
71476;BME280;59286;59.274;17.974;2023-02-22T03:46:13;101591.19;;;-2.58;77.53
71476;BME280;59286;59.274;17.974;2023-02-22T03:49:03;101596.19;;;-2.50;77.33
71476;BME280;59286;59.274;17.974;2023-02-22T03:51:31;101595.78;;;-2.54;77.66
71476;BME280;59286;59.274;17.974;2023-02-22T03:53:57;101584.03;;;-2.63;78.03
71476;BME280;59286;59.274;17.974;2023-02-22T03:56:28;101593.81;;;-2.52;78.22
71476;BME280;59286;59.274;17.974;2023-02-22T03:59:01;101591.19;;;-2.58;77.63
71476;BME280;59286;59.274;17.974;2023-02-22T04:01:27;101592.09;;;-2.66;78.29
71476;BME280;59286;59.274;17.974;2023-02-22T04:03:53;101604.44;;;-2.55;78.14
71476;BME280;59286;59.274;17.974;2023-02-22T04:06:18;101603.72;;;-2.49;78.26
71476;BME280;59286;59.274;17.974;2023-02-22T04:08:43;101606.66;;;-2.52;78.29
71476;BME280;59286;59.274;17.974;2023-02-22T04:11:09;101614.94;;;-2.50;78.08
71476;BME280;59286;59.274;17.974;2023-02-22T04:13:34;101609.22;;;-2.52;77.75
71476;BME280;59286;59.274;17.974;2023-02-22T04:15:59;101620.88;;;-2.49;77.76
71476;BME280;59286;59.274;17.974;2023-02-22T04:18:25;101613.59;;;-2.46;77.91
71476;BME280;59286;59.274;17.974;2023-02-22T04:20:50;101608.22;;;-2.51;77.63
71476;BME280;59286;59.274;17.974;2023-02-22T04:23:15;101618.25;;;-2.56;77.88
71476;BME280;59286;59.274;17.974;2023-02-22T04:25:41;101621.25;;;-2.52;78.64
71476;BME280;59286;59.274;17.974;2023-02-22T04:28:06;101615.94;;;-2.51;78.44
71476;BME280;59286;59.274;17.974;2023-02-22T04:30:31;101627.41;;;-2.47;77.67
71476;BME280;59286;59.274;17.974;2023-02-22T04:32:57;101633.28;;;-2.53;78.45
71476;BME280;59286;59.274;17.974;2023-02-22T04:35:22;101641.34;;;-2.56;78.63
71476;BME280;59286;59.274;17.974;2023-02-22T04:37:47;101643.16;;;-2.50;78.41
71476;BME280;59286;59.274;17.974;2023-02-22T04:40:15;101636.22;;;-2.56;78.45
71476;BME280;59286;59.274;17.974;2023-02-22T04:42:41;101636.84;;;-2.54;78.59
71476;BME280;59286;59.274;17.974;2023-02-22T04:45:07;101637.97;;;-2.56;78.65
71476;BME280;59286;59.274;17.974;2023-02-22T04:47:34;101632.97;;;-2.64;79.07
71476;BME280;59286;59.274;17.974;2023-02-22T04:50:00;101637.47;;;-2.66;78.84
71476;BME280;59286;59.274;17.974;2023-02-22T04:52:25;101635.91;;;-2.67;79.26
71476;BME280;59286;59.274;17.974;2023-02-22T04:54:51;101645.78;;;-2.64;79.70
71476;BME280;59286;59.274;17.974;2023-02-22T04:57:17;101644.03;;;-2.64;79.57
71476;BME280;59286;59.274;17.974;2023-02-22T04:59:42;101650.16;;;-2.65;80.08
71476;BME280;59286;59.274;17.974;2023-02-22T05:02:08;101646.97;;;-2.67;79.62
71476;BME280;59286;59.274;17.974;2023-02-22T05:04:33;101649.53;;;-2.67;80.02
71476;BME280;59286;59.274;17.974;2023-02-22T05:06:58;101649.53;;;-2.67;79.88
71476;BME280;59286;59.274;17.974;2023-02-22T05:09:24;101661.97;;;-2.64;80.20
71476;BME280;59286;59.274;17.974;2023-02-22T05:11:49;101644.94;;;-2.71;80.31
71476;BME280;59286;59.274;17.974;2023-02-22T05:14:14;101655.63;;;-2.68;80.34
71476;BME280;59286;59.274;17.974;2023-02-22T05:16:40;101665.88;;;-2.68;80.74
71476;BME280;59286;59.274;17.974;2023-02-22T05:19:05;101657.94;;;-2.73;80.85
71476;BME280;59286;59.274;17.974;2023-02-22T05:21:30;101658.75;;;-2.72;80.92
71476;BME280;59286;59.274;17.974;2023-02-22T05:23:56;101668.19;;;-2.73;81.12
71476;BME280;59286;59.274;17.974;2023-02-22T05:26:21;101661.47;;;-2.74;81.41
71476;BME280;59286;59.274;17.974;2023-02-22T05:28:47;101663.41;;;-2.76;81.56
71476;BME280;59286;59.274;17.974;2023-02-22T05:31:12;101666.44;;;-2.72;81.23
71476;BME280;59286;59.274;17.974;2023-02-22T05:33:37;101665.88;;;-2.68;81.35
71476;BME280;59286;59.274;17.974;2023-02-22T05:36:04;101665.88;;;-2.68;81.56
71476;BME280;59286;59.274;17.974;2023-02-22T05:38:29;101669.78;;;-2.72;81.23
71476;BME280;59286;59.274;17.974;2023-02-22T05:40:54;101675.00;;;-2.65;81.32
71476;BME280;59286;59.274;17.974;2023-02-22T05:43:21;101676.75;;;-2.66;81.46
71476;BME280;59286;59.274;17.974;2023-02-22T05:45:46;101678.00;;;-2.62;81.49
71476;BME280;59286;59.274;17.974;2023-02-22T05:48:12;101678.59;;;-2.60;81.43
71476;BME280;59286;59.274;17.974;2023-02-22T05:50:37;101681.97;;;-2.59;81.54
71476;BME280;59286;59.274;17.974;2023-02-22T05:53:02;101675.63;;;-2.63;81.49
71476;BME280;59286;59.274;17.974;2023-02-22T05:55:29;101675.53;;;-2.70;81.73
71476;BME280;59286;59.274;17.974;2023-02-22T05:57:55;101690.19;;;-2.64;82.09
71476;BME280;59286;59.274;17.974;2023-02-22T06:00:28;101684.63;;;-2.67;81.79
71476;BME280;59286;59.274;17.974;2023-02-22T06:02:59;101684.22;;;-2.71;82.38
71476;BME280;59286;59.274;17.974;2023-02-22T06:05:26;101691.63;;;-2.76;82.40
71476;BME280;59286;59.274;17.974;2023-02-22T06:07:52;101688.47;;;-2.78;82.15
71476;BME280;59286;59.274;17.974;2023-02-22T06:10:18;101699.25;;;-2.82;83.01
71476;BME280;59286;59.274;17.974;2023-02-22T06:12:44;101695.13;;;-2.83;82.92
71476;BME280;59286;59.274;17.974;2023-02-22T06:15:09;101696.88;;;-2.84;83.18
71476;BME280;59286;59.274;17.974;2023-02-22T06:17:35;101696.50;;;-2.81;82.98
71476;BME280;59286;59.274;17.974;2023-02-22T06:20:00;101695.38;;;-2.78;82.96
71476;BME280;59286;59.274;17.974;2023-02-22T06:22:26;101699.06;;;-2.81;83.40
71476;BME280;59286;59.274;17.974;2023-02-22T06:24:51;101701.88;;;-2.76;83.23
71476;BME280;59286;59.274;17.974;2023-02-22T06:27:17;101707.31;;;-2.71;83.23
71476;BME280;59286;59.274;17.974;2023-02-22T06:29:46;101704.59;;;-2.63;82.74
71476;BME280;59286;59.274;17.974;2023-02-22T06:32:12;101701.09;;;-2.62;82.27
71476;BME280;59286;59.274;17.974;2023-02-22T06:34:38;101709.75;;;-2.63;81.96
71476;BME280;59286;59.274;17.974;2023-02-22T06:37:05;101704.09;;;-2.58;82.21
71476;BME280;59286;59.274;17.974;2023-02-22T06:39:31;101706.13;;;-2.54;81.63
71476;BME280;59286;59.274;17.974;2023-02-22T06:41:56;101714.31;;;-2.44;81.54
71476;BME280;59286;59.274;17.974;2023-02-22T06:44:22;101714.72;;;-2.40;81.21
71476;BME280;59286;59.274;17.974;2023-02-22T06:46:48;101715.16;;;-2.37;81.18
71476;BME280;59286;59.274;17.974;2023-02-22T06:49:18;101711.00;;;-2.38;80.71
71476;BME280;59286;59.274;17.974;2023-02-22T06:51:43;101710.47;;;-2.33;80.38
71476;BME280;59286;59.274;17.974;2023-02-22T06:54:09;101714.09;;;-2.28;79.59
71476;BME280;59286;59.274;17.974;2023-02-22T06:56:34;101714.09;;;-2.28;79.28
71476;BME280;59286;59.274;17.974;2023-02-22T06:59:00;101710.91;;;-2.30;78.89
71476;BME280;59286;59.274;17.974;2023-02-22T07:01:28;101724.50;;;-2.29;77.90
71476;BME280;59286;59.274;17.974;2023-02-22T07:03:54;101718.09;;;-2.40;77.48
71476;BME280;59286;59.274;17.974;2023-02-22T07:06:19;101719.16;;;-2.34;76.95
71476;BME280;59286;59.274;17.974;2023-02-22T07:08:45;101718.59;;;-2.30;77.29
71476;BME280;59286;59.274;17.974;2023-02-22T07:11:10;101728.75;;;-2.22;74.21
71476;BME280;59286;59.274;17.974;2023-02-22T07:13:35;101723.97;;;-2.25;73.49
71476;BME280;59286;59.274;17.974;2023-02-22T07:16:01;101726.38;;;-2.23;73.83
71476;BME280;59286;59.274;17.974;2023-02-22T07:18:26;101728.75;;;-2.22;73.20
71476;BME280;59286;59.274;17.974;2023-02-22T07:20:52;101730.16;;;-2.19;73.75
71476;BME280;59286;59.274;17.974;2023-02-22T07:23:18;101734.44;;;-2.05;73.47
71476;BME280;59286;59.274;17.974;2023-02-22T07:25:44;101735.75;;;-1.94;73.60
71476;BME280;59286;59.274;17.974;2023-02-22T07:28:09;101733.03;;;-1.86;72.04
71476;BME280;59286;59.274;17.974;2023-02-22T07:30:38;101739.69;;;-1.71;71.68
71476;BME280;59286;59.274;17.974;2023-02-22T07:33:09;101741.56;;;-1.58;70.50
71476;BME280;59286;59.274;17.974;2023-02-22T07:35:42;101743.34;;;-1.31;70.10
71476;BME280;59286;59.274;17.974;2023-02-22T07:38:09;101755.72;;;-1.14;69.24
71476;BME280;59286;59.274;17.974;2023-02-22T07:40:35;101754.47;;;-0.90;69.12
71476;BME280;59286;59.274;17.974;2023-02-22T07:43:16;101761.19;;;-0.89;67.56
71476;BME280;59286;59.274;17.974;2023-02-22T07:45:42;101754.47;;;-0.90;66.15
71476;BME280;59286;59.274;17.974;2023-02-22T07:48:08;101760.16;;;-1.01;66.32
71476;BME280;59286;59.274;17.974;2023-02-22T07:50:34;101764.81;;;-1.18;63.77
71476;BME280;59286;59.274;17.974;2023-02-22T07:53:02;101767.50;;;-1.26;64.85
71476;BME280;59286;59.274;17.974;2023-02-22T07:55:29;101775.69;;;-1.43;65.01
71476;BME280;59286;59.274;17.974;2023-02-22T07:58:00;101774.22;;;-1.52;65.31
71476;BME280;59286;59.274;17.974;2023-02-22T08:00:31;101777.38;;;-1.57;64.28
71476;BME280;59286;59.274;17.974;2023-02-22T08:03:02;101794.03;;;-1.25;63.82
71476;BME280;59286;59.274;17.974;2023-02-22T08:05:30;101775.34;;;-1.06;64.16
71476;BME280;59286;59.274;17.974;2023-02-22T08:07:55;101786.03;;;-0.75;64.14
71476;BME280;59286;59.274;17.974;2023-02-22T08:10:22;101782.91;;;-0.64;63.73
71476;BME280;59286;59.274;17.974;2023-02-22T08:12:48;101770.66;;;-0.55;63.58
71476;BME280;59286;59.274;17.974;2023-02-22T08:15:16;101781.00;;;-0.49;61.12
71476;BME280;59286;59.274;17.974;2023-02-22T08:17:42;101781.00;;;-0.49;61.53
71476;BME280;59286;59.274;17.974;2023-02-22T08:20:08;101771.72;;;-0.43;60.93
71476;BME280;59286;59.274;17.974;2023-02-22T08:22:33;101775.28;;;-0.38;60.13
71476;BME280;59286;59.274;17.974;2023-02-22T08:24:58;101775.09;;;-0.30;60.60
71476;BME280;59286;59.274;17.974;2023-02-22T08:27:29;101774.91;;;-0.35;59.48
71476;BME280;59286;59.274;17.974;2023-02-22T08:29:54;101768.34;;;-0.44;60.09
71476;BME280;59286;59.274;17.974;2023-02-22T08:32:21;101773.94;;;-0.34;60.48
71476;BME280;59286;59.274;17.974;2023-02-22T08:34:46;101779.88;;;-0.27;60.66
71476;BME280;59286;59.274;17.974;2023-02-22T08:37:12;101786.28;;;-0.10;60.12
71476;BME280;59286;59.274;17.974;2023-02-22T08:39:38;101787.44;;;-0.06;60.00
71476;BME280;59286;59.274;17.974;2023-02-22T08:42:03;101779.56;;;0.16;59.78
71476;BME280;59286;59.274;17.974;2023-02-22T08:44:28;101786.72;;;0.27;58.33
71476;BME280;59286;59.274;17.974;2023-02-22T08:46:54;101787.50;;;0.14;58.29
71476;BME280;59286;59.274;17.974;2023-02-22T08:49:20;101786.69;;;0.14;58.51
71476;BME280;59286;59.274;17.974;2023-02-22T08:51:45;101777.59;;;0.18;57.76
71476;BME280;59286;59.274;17.974;2023-02-22T08:54:10;101787.91;;;0.31;58.78
71476;BME280;59286;59.274;17.974;2023-02-22T08:56:36;101791.50;;;0.43;58.01
71476;BME280;59286;59.274;17.974;2023-02-22T08:59:01;101787.13;;;0.56;57.76
71476;BME280;59286;59.274;17.974;2023-02-22T09:01:26;101791.09;;;0.52;58.59
71476;BME280;59286;59.274;17.974;2023-02-22T09:03:53;101795.06;;;0.68;57.76
71476;BME280;59286;59.274;17.974;2023-02-22T09:06:20;101790.50;;;0.63;55.59
71476;BME280;59286;59.274;17.974;2023-02-22T09:08:46;101796.66;;;0.56;56.20
71476;BME280;59286;59.274;17.974;2023-02-22T09:11:12;101787.50;;;0.60;55.63
71476;BME280;59286;59.274;17.974;2023-02-22T09:13:37;101794.66;;;0.90;56.40
71476;BME280;59286;59.274;17.974;2023-02-22T09:16:02;101803.19;;;0.91;56.85
71476;BME280;59286;59.274;17.974;2023-02-22T09:18:28;101794.41;;;1.05;56.48
71476;BME280;59286;59.274;17.974;2023-02-22T09:20:53;101792.63;;;0.99;57.93
71476;BME280;59286;59.274;17.974;2023-02-22T09:23:19;101801.16;;;1.13;57.80
71476;BME280;59286;59.274;17.974;2023-02-22T09:25:48;101802.78;;;1.01;58.45
71476;BME280;59286;59.274;17.974;2023-02-22T09:28:13;101800.84;;;0.63;57.75
71476;BME280;59286;59.274;17.974;2023-02-22T09:30:39;101799.59;;;0.27;59.57
71476;BME280;59286;59.274;17.974;2023-02-22T09:33:07;101806.13;;;0.10;58.30
71476;BME280;59286;59.274;17.974;2023-02-22T09:35:37;101812.00;;;-0.23;59.44
71476;BME280;59286;59.274;17.974;2023-02-22T09:38:06;101816.25;;;-0.49;61.16
71476;BME280;59286;59.274;17.974;2023-02-22T09:40:32;101816.81;;;-0.54;61.51
71476;BME280;59286;59.274;17.974;2023-02-22T09:43:29;101800.44;;;-0.33;61.78
71476;BME280;59286;59.274;17.974;2023-02-22T09:46:16;101814.22;;;-0.13;61.43
71476;BME280;59286;59.274;17.974;2023-02-22T09:48:54;101817.53;;;-0.26;61.38
71476;BME280;59286;59.274;17.974;2023-02-22T09:51:25;101819.69;;;-0.36;61.83
71476;BME280;59286;59.274;17.974;2023-02-22T09:53:54;101813.13;;;-0.38;62.49
71476;BME280;59286;59.274;17.974;2023-02-22T09:56:22;101807.16;;;-0.45;61.99
71476;BME280;59286;59.274;17.974;2023-02-22T09:58:50;101818.41;;;-0.53;62.89
71476;BME280;59286;59.274;17.974;2023-02-22T10:01:31;101814.22;;;-0.60;62.56
71476;BME280;59286;59.274;17.974;2023-02-22T10:04:09;101812.94;;;-0.77;63.39
71476;BME280;59286;59.274;17.974;2023-02-22T10:06:37;101814.94;;;-0.73;62.01
71476;BME280;59286;59.274;17.974;2023-02-22T10:09:08;101813.41;;;-0.67;62.59
71476;BME280;59286;59.274;17.974;2023-02-22T10:14:41;101820.38;;;-0.55;62.79
71476;BME280;59286;59.274;17.974;2023-02-22T10:17:32;101822.75;;;-0.53;62.60
71476;BME280;59286;59.274;17.974;2023-02-22T10:22:43;101821.94;;;-0.54;62.11
71476;BME280;59286;59.274;17.974;2023-02-22T10:25:19;101822.13;;;-0.62;62.61
71476;BME280;59286;59.274;17.974;2023-02-22T10:27:58;101821.00;;;-0.53;63.31
71476;BME280;59286;59.274;17.974;2023-02-22T10:30:28;101818.22;;;-0.45;62.36
71476;BME280;59286;59.274;17.974;2023-02-22T10:33:17;101807.97;;;-0.32;61.69
71476;BME280;59286;59.274;17.974;2023-02-22T10:35:45;101810.84;;;-0.14;61.60
71476;BME280;59286;59.274;17.974;2023-02-22T10:38:23;101812.50;;;0.20;60.50
71476;BME280;59286;59.274;17.974;2023-02-22T10:43:25;101811.31;;;0.62;59.50
71476;BME280;59286;59.274;17.974;2023-02-22T10:45:53;101812.50;;;0.79;59.81
71476;BME280;59286;59.274;17.974;2023-02-22T10:48:20;101807.78;;;0.63;59.23
71476;BME280;59286;59.274;17.974;2023-02-22T10:50:47;101812.94;;;0.50;60.30
71476;BME280;59286;59.274;17.974;2023-02-22T10:53:13;101808.56;;;0.57;60.41
71476;BME280;59286;59.274;17.974;2023-02-22T10:56:05;101813.31;;;0.79;59.46
71476;BME280;59286;59.274;17.974;2023-02-22T11:04:15;101819.25;;;0.73;56.63
71476;BME280;59286;59.274;17.974;2023-02-22T11:06:44;101812.91;;;0.69;58.00
71476;BME280;59286;59.274;17.974;2023-02-22T11:11:44;101818.66;;;0.71;58.25
71476;BME280;59286;59.274;17.974;2023-02-22T11:14:13;101797.44;;;0.69;57.48
71476;BME280;59286;59.274;17.974;2023-02-22T11:16:51;101813.72;;;0.83;57.78
71476;BME280;59286;59.274;17.974;2023-02-22T11:19:23;101819.88;;;0.69;55.55
71476;BME280;59286;59.274;17.974;2023-02-22T11:21:56;101812.50;;;0.79;57.06
71476;BME280;59286;59.274;17.974;2023-02-22T11:24:23;101818.44;;;0.99;57.09
71476;BME280;59286;59.274;17.974;2023-02-22T11:26:57;101821.84;;;0.93;56.10
71476;BME280;59286;59.274;17.974;2023-02-22T11:29:27;101821.44;;;0.96;56.91
71476;BME280;59286;59.274;17.974;2023-02-22T11:31:56;101807.91;;;1.07;58.38
71476;BME280;59286;59.274;17.974;2023-02-22T11:34:33;101815.81;;;1.25;55.66
71476;BME280;59286;59.274;17.974;2023-02-22T11:37:26;101820.97;;;1.25;54.95
71476;BME280;59286;59.274;17.974;2023-02-22T11:40:15;101818.97;;;1.34;55.86
71476;BME280;59286;59.274;17.974;2023-02-22T11:42:44;101823.13;;;1.35;54.37
71476;BME280;59286;59.274;17.974;2023-02-22T11:45:17;101822.78;;;1.18;55.15
71476;BME280;59286;59.274;17.974;2023-02-22T11:50:26;101827.97;;;1.05;55.97
71476;BME280;59286;59.274;17.974;2023-02-22T11:53:08;101833.94;;;0.99;56.00
71476;BME280;59286;59.274;17.974;2023-02-22T12:06:33;101829.78;;;0.85;57.61
71476;BME280;59286;59.274;17.974;2023-02-22T12:12:02;101823.22;;;0.89;58.39
71476;BME280;59286;59.274;17.974;2023-02-22T12:17:30;101833.94;;;0.86;59.26
71476;BME280;59286;59.274;17.974;2023-02-22T12:20:16;101827.63;;;0.82;59.46
71476;BME280;59286;59.274;17.974;2023-02-22T12:25:40;101813.31;;;0.47;58.92
71476;BME280;59286;59.274;17.974;2023-02-22T12:28:18;101826.03;;;0.61;59.93
71476;BME280;59286;59.274;17.974;2023-02-22T12:30:51;101827.22;;;0.59;58.62
71476;BME280;59286;59.274;17.974;2023-02-22T12:33:34;101813.31;;;0.40;59.01
71476;BME280;59286;59.274;17.974;2023-02-22T12:36:03;101818.88;;;0.37;59.64
71476;BME280;59286;59.274;17.974;2023-02-22T12:38:34;101813.69;;;0.31;60.89
71476;BME280;59286;59.274;17.974;2023-02-22T12:43:52;101813.13;;;0.35;61.95
71476;BME280;59286;59.274;17.974;2023-02-22T12:46:27;101824.03;;;0.37;60.00
71476;BME280;59286;59.274;17.974;2023-02-22T12:52:08;101817.66;;;0.27;58.31
71476;BME280;59286;59.274;17.974;2023-02-22T12:54:58;101816.44;;;0.23;60.77
71476;BME280;59286;59.274;17.974;2023-02-22T13:00:27;101817.22;;;0.04;60.80
71476;BME280;59286;59.274;17.974;2023-02-22T13:03:05;101820.00;;;0.09;61.72
71476;BME280;59286;59.274;17.974;2023-02-22T13:05:38;101817.63;;;0.14;60.89
71476;BME280;59286;59.274;17.974;2023-02-22T13:08:11;101824.38;;;0.15;62.39
71476;BME280;59286;59.274;17.974;2023-02-22T13:11:08;101820.81;;;0.16;63.33
71476;BME280;59286;59.274;17.974;2023-02-22T13:14:06;101819.00;;;0.10;62.42
71476;BME280;59286;59.274;17.974;2023-02-22T13:22:10;101812.25;;;-0.05;64.03
71476;BME280;59286;59.274;17.974;2023-02-22T13:25:00;101811.44;;;-0.05;65.12
71476;BME280;59286;59.274;17.974;2023-02-22T13:27:37;101804.47;;;-0.18;65.07
71476;BME280;59286;59.274;17.974;2023-02-22T13:30:12;101812.41;;;-0.13;63.54
71476;BME280;59286;59.274;17.974;2023-02-22T13:49:58;101809.50;;;0.10;65.87
71476;BME280;59286;59.274;17.974;2023-02-22T13:52:11;101805.75;;;0.13;65.29
71476;BME280;59286;59.274;17.974;2023-02-22T13:54:53;101801.38;;;0.07;65.27
71476;BME280;59286;59.274;17.974;2023-02-22T13:57:28;101811.09;;;0.18;64.48
71476;BME280;59286;59.274;17.974;2023-02-22T14:02:57;101802.94;;;0.08;63.20
71476;BME280;59286;59.274;17.974;2023-02-22T14:13:17;101799.38;;;0.09;63.06
71476;BME280;59286;59.274;17.974;2023-02-22T14:18:35;101792.59;;;-0.12;60.32
71476;BME280;59286;59.274;17.974;2023-02-22T14:21:04;101785.03;;;-0.27;60.06
71476;BME280;59286;59.274;17.974;2023-02-22T14:23:41;101789.19;;;-0.26;62.07
71476;BME280;59286;59.274;17.974;2023-02-22T14:26:25;101794.53;;;-0.34;62.95
71476;BME280;59286;59.274;17.974;2023-02-22T14:28:58;101794.69;;;-0.42;64.16
71476;BME280;59286;59.274;17.974;2023-02-22T14:34:20;101782.97;;;-0.51;64.69
71476;BME280;59286;59.274;17.974;2023-02-22T14:36:53;101793.28;;;-0.51;64.14
71476;BME280;59286;59.274;17.974;2023-02-22T14:39:46;101782.94;;;-0.57;64.66
71476;BME280;59286;59.274;17.974;2023-02-22T14:42:15;101784.69;;;-0.58;65.21
71476;BME280;59286;59.274;17.974;2023-02-22T14:58:22;101789.28;;;-0.60;64.15